createdAt,value
2022-08-04T00:01:24.051Z,59.11
2022-08-04T00:03:59.729Z,59.69
2022-08-04T00:06:35.560Z,62.29
2022-08-04T00:09:09.746Z,65.68
2022-08-04T00:11:45.500Z,63.86
2022-08-04T00:14:17.117Z,61.92
2022-08-04T00:16:49.623Z,60.43
2022-08-04T00:19:26.296Z,58.71
2022-08-04T00:21:57.916Z,59.56
2022-08-04T00:24:31.140Z,61.64
2022-08-04T00:27:01.973Z,65.23
2022-08-04T00:29:33.834Z,65.39
2022-08-04T00:32:05.093Z,63.24
2022-08-04T00:34:36.272Z,61.68
2022-08-04T00:37:07.643Z,60.44
2022-08-04T00:39:38.962Z,58.69
2022-08-04T00:42:26.221Z,59.55
2022-08-04T00:45:04.307Z,61.52
2022-08-04T00:47:41.183Z,65.37
2022-08-04T00:50:12.800Z,64.68
2022-08-04T00:52:57.903Z,62.44
2022-08-04T00:55:44.752Z,61.10
2022-08-04T00:58:24.603Z,60.44
2022-08-04T01:00:59.716Z,59.29
2022-08-04T01:03:40.613Z,60.73
2022-08-04T01:06:13.706Z,64.46
2022-08-04T01:08:56.426Z,64.63
2022-08-04T01:11:56.219Z,63.32
2022-08-04T01:14:32.593Z,61.99
2022-08-04T01:17:20.931Z,61.26
2022-08-04T01:20:01.860Z,60.70
2022-08-04T01:22:43.886Z,60.17
2022-08-04T01:25:21.187Z,59.43
2022-08-04T01:28:08.307Z,59.32
2022-08-04T01:30:39.699Z,61.18
2022-08-04T01:33:14.485Z,66.03
2022-08-04T01:35:48.753Z,65.82
2022-08-04T01:38:22.026Z,64.08
2022-08-04T01:40:53.575Z,62.48
2022-08-04T01:43:24.995Z,61.94
2022-08-04T01:45:58.407Z,61.72
2022-08-04T01:48:29.853Z,61.42
2022-08-04T01:51:01.192Z,60.89
2022-08-04T01:53:33.253Z,60.27
2022-08-04T01:56:04.810Z,60.08
2022-08-04T01:58:36.460Z,60.35
2022-08-04T02:01:09.114Z,60.28
2022-08-04T02:04:19.703Z,59.19
2022-08-04T02:06:45.253Z,60.50
2022-08-04T02:09:18.278Z,64.94
2022-08-04T02:11:50.887Z,64.52
2022-08-04T02:14:40.459Z,62.80
2022-08-04T02:17:12.604Z,61.85
2022-08-04T02:20:05.612Z,61.04
2022-08-04T02:22:51.205Z,60.49
2022-08-04T02:25:25.700Z,59.55
2022-08-04T02:28:05.429Z,61.14
2022-08-04T02:30:40.984Z,65.13
2022-08-04T02:33:13.469Z,64.87
2022-08-04T02:35:46.745Z,63.42
2022-08-04T02:38:26.109Z,62.47
2022-08-04T02:41:00.157Z,61.76
2022-08-04T02:43:51.589Z,61.26
2022-08-04T02:46:23.670Z,60.85
2022-08-04T02:48:55.022Z,60.35
2022-08-04T02:51:27.484Z,59.07
2022-08-04T02:53:59.400Z,60.46
2022-08-04T02:56:31.820Z,64.15
2022-08-04T02:59:03.561Z,64.24
2022-08-04T03:01:35.023Z,62.63
2022-08-04T03:04:18.257Z,61.69
2022-08-04T03:07:14.391Z,60.95
2022-08-04T03:09:47.371Z,60.87
2022-08-04T03:12:28.447Z,60.80
2022-08-04T03:15:14.638Z,60.42
2022-08-04T03:18:03.330Z,60.09
2022-08-04T03:20:51.790Z,59.24
2022-08-04T03:23:35.743Z,59.87
2022-08-04T03:26:18.633Z,65.28
2022-08-04T03:29:04.577Z,64.66
2022-08-04T03:31:48.847Z,62.95
2022-08-04T03:34:26.849Z,61.79
2022-08-04T03:37:16.943Z,61.24
2022-08-04T03:40:03.957Z,60.49
2022-08-04T03:42:46.591Z,59.94
2022-08-04T03:45:30.917Z,58.94
2022-08-04T03:48:13.839Z,58.81
2022-08-04T03:51:35.397Z,63.42
2022-08-04T03:54:23.032Z,63.65
2022-08-04T03:57:13.241Z,61.81
2022-08-04T03:59:51.184Z,60.83
2022-08-04T04:02:36.804Z,60.31
2022-08-04T04:05:22.955Z,59.97
2022-08-04T04:08:18.705Z,58.56
2022-08-04T04:10:57.131Z,60.50
2022-08-04T04:13:31.259Z,64.25
2022-08-04T04:16:08.451Z,64.06
2022-08-04T04:19:02.259Z,61.75
2022-08-04T04:21:43.645Z,60.97
2022-08-04T04:24:33.941Z,60.00
2022-08-04T04:27:10.202Z,58.92
2022-08-04T04:30:04.691Z,60.57
2022-08-04T04:32:41.501Z,64.25
2022-08-04T04:35:19.877Z,64.05
2022-08-04T04:38:10.177Z,62.35
2022-08-04T04:40:46.026Z,61.46
2022-08-04T04:43:22.904Z,61.09
2022-08-04T04:46:17.313Z,60.99
2022-08-04T04:48:53.350Z,60.11
2022-08-04T04:51:28.670Z,59.43
2022-08-04T04:54:03.203Z,62.40
2022-08-04T04:56:38.314Z,63.78
2022-08-04T04:59:11.335Z,62.90
2022-08-04T05:01:53.424Z,61.76
2022-08-04T05:04:43.521Z,60.47
2022-08-04T05:07:35.853Z,59.68
2022-08-04T05:10:11.738Z,59.06
2022-08-04T05:14:38.593Z,60.29
2022-08-04T05:15:50.855Z,63.21
2022-08-04T05:18:23.647Z,62.17
2022-08-04T05:20:56.830Z,60.28
2022-08-04T05:23:29.310Z,59.40
2022-08-04T05:26:01.467Z,61.06
2022-08-04T05:28:35.769Z,63.38
2022-08-04T05:31:07.862Z,62.34
2022-08-04T05:33:46.731Z,61.46
2022-08-04T05:36:35.445Z,59.64
2022-08-04T05:39:13.688Z,59.08
2022-08-04T05:41:48.173Z,62.25
2022-08-04T05:44:27.541Z,63.52
2022-08-04T05:46:59.269Z,61.53
2022-08-04T05:49:30.801Z,59.85
2022-08-04T05:52:03.787Z,58.13
2022-08-04T05:54:35.308Z,59.87
2022-08-04T05:57:06.759Z,61.47
2022-08-04T05:59:39.172Z,63.73
2022-08-04T06:02:11.070Z,62.41
2022-08-04T06:04:42.883Z,60.28
2022-08-04T06:07:14.546Z,58.40
2022-08-04T06:09:45.785Z,58.63
2022-08-04T06:12:19.385Z,61.22
2022-08-04T06:14:51.472Z,62.79
2022-08-04T06:18:33.688Z,61.13
2022-08-04T06:20:18.046Z,57.86
2022-08-04T06:22:51.965Z,58.33
2022-08-04T06:25:23.829Z,60.39
2022-08-04T06:27:56.453Z,61.53
2022-08-04T06:30:27.977Z,63.11
2022-08-04T06:33:03.381Z,60.66
2022-08-04T06:35:36.117Z,58.13
2022-08-04T06:38:06.963Z,58.70
2022-08-04T06:40:37.795Z,59.21
2022-08-04T06:43:10.015Z,60.82
2022-08-04T06:45:41.544Z,60.95
2022-08-04T06:48:13.984Z,62.66
2022-08-04T06:51:24.435Z,61.27
2022-08-04T06:53:36.848Z,57.33
2022-08-04T06:56:09.125Z,57.26
2022-08-04T06:58:40.881Z,57.53
2022-08-04T07:01:11.823Z,58.59
2022-08-04T07:03:42.384Z,59.86
2022-08-04T07:06:14.007Z,60.01
2022-08-04T07:08:45.177Z,60.64
2022-08-04T07:11:16.383Z,61.09
2022-08-04T07:13:47.842Z,60.52
2022-08-04T07:16:20.193Z,60.45
2022-08-04T07:19:10.289Z,60.05
2022-08-04T07:22:15.934Z,60.81
2022-08-04T07:24:34.349Z,60.38
2022-08-04T07:27:05.722Z,60.23
2022-08-04T07:29:36.719Z,60.33
2022-08-04T07:32:08.709Z,60.49
2022-08-04T07:34:40.401Z,60.30
2022-08-04T07:37:13.831Z,60.04
2022-08-04T07:39:48.373Z,59.56
2022-08-04T07:42:21.618Z,59.20
2022-08-04T07:44:52.442Z,59.12
2022-08-04T07:47:25.414Z,58.14
2022-08-04T07:49:58.045Z,57.22
2022-08-04T07:52:29.129Z,56.00
2022-08-04T07:55:00.030Z,56.17
2022-08-04T07:57:40.403Z,55.90
2022-08-04T08:00:15.029Z,55.06
2022-08-04T08:02:44.102Z,54.84
2022-08-04T08:05:16.966Z,54.48
2022-08-04T08:07:50.749Z,53.88
2022-08-04T08:10:26.462Z,52.89
2022-08-04T08:12:57.449Z,52.49
2022-08-04T08:15:27.964Z,52.76
2022-08-04T08:18:00.757Z,52.52
2022-08-04T08:20:32.937Z,52.89
2022-08-04T08:23:04.463Z,52.40
2022-08-04T08:25:35.404Z,52.07
2022-08-04T08:28:06.786Z,51.46
2022-08-04T08:30:38.030Z,51.61
2022-08-04T08:33:14.166Z,51.88
2022-08-04T08:35:53.678Z,50.89
2022-08-04T08:38:30.234Z,47.85
2022-08-04T08:41:08.988Z,45.83
2022-08-04T08:44:06.106Z,46.91
2022-08-04T08:46:49.813Z,46.31
2022-08-04T08:50:02.709Z,45.13
2022-08-04T08:52:56.593Z,45.87
2022-08-04T08:55:28.025Z,45.44
2022-08-04T08:58:06.479Z,45.42
2022-08-04T09:00:43.220Z,43.95
2022-08-04T09:03:22.057Z,42.59
2022-08-04T09:05:57.255Z,42.37
2022-08-04T09:08:41.097Z,40.55
2022-08-04T09:11:15.510Z,39.79
2022-08-04T09:13:49.487Z,39.65
2022-08-04T09:16:22.544Z,40.08
2022-08-04T09:18:57.814Z,40.28
2022-08-04T09:21:33.164Z,39.47
2022-08-04T09:24:35.754Z,39.68
2022-08-04T09:27:02.433Z,39.69
2022-08-04T09:29:37.667Z,39.83
2022-08-04T09:32:10.410Z,40.08
2022-08-04T09:34:44.811Z,38.71
2022-08-04T09:37:18.824Z,38.05
2022-08-04T09:39:54.127Z,37.64
2022-08-04T09:42:36.524Z,37.75
2022-08-04T09:45:13.639Z,38.26
2022-08-04T09:47:56.426Z,38.58
2022-08-04T09:50:33.828Z,38.89
2022-08-04T09:53:26.771Z,38.94
2022-08-04T09:56:03.557Z,39.29
2022-08-04T09:58:45.749Z,38.84
2022-08-04T10:01:22.615Z,38.70
2022-08-04T10:03:56.339Z,38.48
2022-08-04T10:06:46.412Z,38.60
2022-08-04T10:09:25.945Z,39.38
2022-08-04T10:12:04.057Z,38.96
2022-08-04T10:14:39.455Z,38.97
2022-08-04T10:17:17.555Z,39.44
2022-08-04T10:19:52.534Z,39.39
2022-08-04T10:22:29.226Z,38.80
2022-08-04T10:25:05.271Z,39.00
2022-08-04T10:27:58.658Z,39.27
2022-08-04T10:30:31.720Z,39.07
2022-08-04T10:33:05.270Z,39.24
2022-08-04T10:35:37.085Z,39.52
2022-08-04T10:38:13.586Z,38.78
2022-08-04T10:40:47.089Z,38.67
2022-08-04T10:43:23.561Z,38.75
2022-08-04T10:45:58.355Z,38.50
2022-08-04T10:48:35.661Z,38.37
2022-08-04T10:51:12.179Z,38.33
2022-08-04T10:53:43.753Z,38.14
2022-08-04T10:56:16.982Z,38.24
2022-08-04T10:58:51.209Z,37.77
2022-08-04T11:02:01.050Z,38.20
2022-08-04T11:04:27.462Z,38.42
2022-08-04T11:07:00.481Z,38.32
2022-08-04T11:09:32.895Z,38.80
2022-08-04T11:12:08.143Z,38.64
2022-08-04T11:14:41.028Z,38.88
2022-08-04T11:17:09.850Z,38.89
2022-08-04T11:19:47.436Z,38.76
2022-08-04T11:22:26.303Z,38.61
2022-08-04T11:24:59.373Z,38.10
2022-08-04T11:27:35.706Z,39.12
2022-08-04T11:30:07.277Z,39.19
2022-08-04T11:32:41.581Z,38.46
2022-08-04T11:35:15.209Z,38.11
2022-08-04T11:37:48.132Z,38.09
2022-08-04T11:40:23.590Z,38.20
2022-08-04T11:42:58.141Z,37.90
2022-08-04T11:45:32.568Z,38.06
2022-08-04T11:48:06.224Z,38.00
2022-08-04T11:50:39.216Z,38.20
2022-08-04T11:53:13.504Z,38.36
2022-08-04T11:56:07.714Z,38.62
2022-08-04T11:58:36.284Z,39.39
2022-08-04T12:01:10.689Z,38.88
2022-08-04T12:04:03.794Z,38.48
2022-08-04T12:06:40.215Z,38.46
2022-08-04T12:09:13.319Z,39.03
2022-08-04T12:11:55.877Z,38.63
2022-08-04T12:14:31.158Z,38.90
2022-08-04T12:17:02.725Z,38.67
2022-08-04T12:20:04.603Z,38.99
2022-08-04T12:22:31.325Z,37.55
2022-08-04T12:25:04.418Z,36.82
2022-08-04T12:27:37.586Z,36.41
2022-08-04T12:31:00.905Z,35.20
2022-08-04T12:33:01.698Z,34.80
2022-08-04T12:35:30.639Z,34.67
2022-08-04T12:38:06.346Z,34.17
2022-08-04T12:40:39.634Z,33.74
2022-08-04T12:43:12.829Z,32.58
2022-08-04T12:45:50.939Z,32.65
2022-08-04T12:48:23.102Z,32.43
2022-08-04T12:50:55.375Z,31.78
2022-08-04T12:53:31.758Z,31.57
2022-08-04T12:56:04.009Z,31.19
2022-08-04T12:58:43.309Z,31.00
2022-08-04T13:02:08.470Z,31.43
2022-08-04T13:04:13.865Z,31.62
2022-08-04T13:06:46.035Z,31.30
2022-08-04T13:09:18.741Z,30.62
2022-08-04T13:11:52.850Z,29.89
2022-08-04T13:14:27.641Z,29.53
2022-08-04T13:17:03.015Z,30.07
2022-08-04T13:19:41.462Z,30.63
2022-08-04T13:22:16.641Z,30.05
2022-08-04T13:24:56.378Z,29.20
2022-08-04T13:27:48.407Z,29.46
2022-08-04T13:30:22.557Z,29.19
2022-08-04T13:32:56.916Z,28.45
2022-08-04T13:35:56.018Z,28.75
2022-08-04T13:38:20.563Z,28.62
2022-08-04T13:40:52.254Z,28.28
2022-08-04T13:44:15.587Z,28.43
2022-08-04T13:46:27.940Z,28.85
2022-08-04T13:49:37.800Z,28.89
2022-08-04T13:51:57.584Z,28.94
2022-08-04T13:54:36.433Z,28.67
2022-08-04T13:57:14.853Z,28.44
2022-08-04T13:59:43.836Z,27.79
2022-08-04T14:02:21.635Z,27.48
2022-08-04T14:04:57.595Z,27.43
2022-08-04T14:07:29.576Z,26.94
2022-08-04T14:10:02.943Z,26.20
2022-08-04T14:12:38.553Z,25.90
2022-08-04T14:16:02.159Z,25.77
2022-08-04T14:18:24.226Z,25.59
2022-08-04T14:21:01.334Z,25.55
2022-08-04T14:23:47.198Z,25.58
2022-08-04T14:26:33.358Z,25.62
2022-08-04T14:29:27.844Z,25.70
2022-08-04T14:32:21.423Z,25.03
2022-08-04T14:34:53.793Z,24.14
2022-08-04T14:37:24.836Z,24.09
2022-08-04T14:40:18.878Z,24.40
2022-08-04T14:42:54.972Z,24.85
2022-08-04T14:45:33.959Z,24.41
2022-08-04T14:48:07.406Z,24.59
2022-08-04T14:50:40.010Z,24.92
2022-08-04T14:53:13.197Z,25.00
2022-08-04T14:55:45.797Z,24.22
2022-08-04T14:58:35.315Z,24.43
2022-08-04T15:01:11.873Z,24.59
2022-08-04T15:03:50.517Z,24.10
2022-08-04T15:06:26.439Z,24.01
2022-08-04T15:08:58.629Z,24.50
2022-08-04T15:11:30.183Z,25.07
2022-08-04T15:14:01.353Z,25.92
2022-08-04T15:16:33.082Z,26.74
2022-08-04T15:19:02.894Z,27.48
2022-08-04T15:21:34.751Z,27.69
2022-08-04T15:24:06.251Z,28.35
2022-08-04T15:26:39.807Z,28.90
2022-08-04T15:29:16.621Z,29.73
2022-08-04T15:32:05.337Z,30.38
2022-08-04T15:34:48.948Z,30.91
2022-08-04T15:37:29.735Z,31.42
2022-08-04T15:40:05.728Z,31.98
2022-08-04T15:42:40.032Z,32.22
2022-08-04T15:46:02.348Z,32.90
2022-08-04T15:48:34.828Z,33.31
2022-08-04T15:51:07.308Z,33.64
2022-08-04T15:54:03.592Z,33.53
2022-08-04T15:57:02.514Z,33.73
2022-08-04T15:59:50.711Z,34.21
2022-08-04T16:02:47.297Z,34.45
2022-08-04T16:05:37.140Z,34.76
2022-08-04T16:08:17.709Z,34.96
2022-08-04T16:10:49.509Z,35.03
2022-08-04T16:13:21.194Z,35.36
2022-08-04T16:15:53.534Z,35.63
2022-08-04T16:18:39.621Z,35.99
2022-08-04T16:21:21.073Z,36.25
2022-08-04T16:24:09.362Z,36.18
2022-08-04T16:26:54.783Z,36.44
2022-08-04T16:29:34.522Z,36.66
2022-08-04T16:32:18.942Z,36.87
2022-08-04T16:34:54.236Z,36.93
2022-08-04T16:37:30.978Z,36.94
2022-08-04T16:40:19.348Z,37.27
2022-08-04T16:42:50.850Z,37.59
2022-08-04T16:45:22.295Z,37.56
2022-08-04T16:48:08.271Z,37.87
2022-08-04T16:50:49.101Z,38.07
2022-08-04T16:53:52.704Z,38.28
2022-08-04T16:56:12.741Z,38.66
2022-08-04T16:58:52.946Z,38.77
2022-08-04T17:01:32.454Z,38.81
2022-08-04T17:04:08.139Z,39.32
2022-08-04T17:06:40.300Z,39.53
2022-08-04T17:09:13.355Z,40.02
2022-08-04T17:11:45.090Z,40.12
2022-08-04T17:14:22.141Z,40.27
2022-08-04T17:16:53.736Z,40.58
2022-08-04T17:19:26.389Z,40.85
2022-08-04T17:22:00.401Z,41.17
2022-08-04T17:24:34.432Z,41.32
2022-08-04T17:28:19.081Z,41.58
2022-08-04T17:29:56.579Z,41.70
2022-08-04T17:32:27.492Z,42.16
2022-08-04T17:35:02.115Z,42.52
2022-08-04T17:40:26.628Z,42.83
2022-08-04T17:44:04.105Z,43.16
2022-08-04T17:46:12.593Z,43.36
2022-08-04T17:48:43.808Z,43.54
2022-08-04T17:51:16.710Z,43.79
2022-08-04T17:54:02.972Z,44.13
2022-08-04T17:56:36.350Z,44.30
2022-08-04T17:59:55.866Z,44.36
2022-08-04T18:02:14.453Z,44.46
2022-08-04T18:05:05.789Z,44.66
2022-08-04T18:08:37.932Z,44.83
2022-08-04T18:10:51.648Z,44.95
2022-08-04T18:13:27.317Z,45.11
2022-08-04T18:16:05.896Z,45.22
2022-08-04T18:18:49.099Z,45.57
2022-08-04T18:21:21.498Z,45.54
2022-08-04T18:23:52.938Z,45.76
2022-08-04T18:26:31.395Z,45.93
2022-08-04T18:29:04.891Z,46.06
2022-08-04T18:31:37.945Z,46.31
2022-08-04T18:34:13.523Z,46.35
2022-08-04T18:36:55.672Z,46.58
2022-08-04T18:40:09.798Z,46.82
2022-08-04T18:42:20.921Z,47.22
2022-08-04T18:44:57.446Z,47.26
2022-08-04T18:47:30.970Z,47.40
2022-08-04T18:50:40.055Z,47.41
2022-08-04T18:53:12.632Z,47.90
2022-08-04T18:55:57.416Z,48.12
2022-08-04T18:58:28.825Z,48.29
2022-08-04T19:01:01.208Z,48.61
2022-08-04T19:03:33.542Z,49.12
2022-08-04T19:06:04.575Z,49.26
2022-08-04T19:08:42.272Z,49.41
2022-08-04T19:11:36.927Z,49.74
2022-08-04T19:14:05.184Z,49.67
2022-08-04T19:16:36.254Z,49.75
2022-08-04T19:19:07.948Z,50.13
2022-08-04T19:22:01.424Z,50.43
2022-08-04T19:24:35.305Z,50.36
2022-08-04T19:27:08.281Z,50.81
2022-08-04T19:29:41.384Z,51.39
2022-08-04T19:32:16.895Z,51.50
2022-08-04T19:34:48.331Z,52.02
2022-08-04T19:38:01.317Z,52.19
2022-08-04T19:40:13.212Z,52.36
2022-08-04T19:42:45.988Z,52.69
2022-08-04T19:45:40.154Z,52.98
2022-08-04T19:48:19.180Z,52.88
2022-08-04T19:50:50.527Z,53.33
2022-08-04T19:53:36.858Z,53.31
2022-08-04T19:56:08.946Z,53.48
2022-08-04T19:58:41.724Z,54.20
2022-08-04T20:16:02.420Z,55.11
2022-08-04T20:18:36.714Z,55.13
2022-08-04T20:21:36.770Z,55.72
2022-08-04T20:24:40.330Z,55.66
2022-08-04T20:27:07.818Z,56.44
2022-08-04T20:29:46.009Z,56.57
2022-08-04T20:32:23.990Z,56.78
2022-08-04T20:34:55.949Z,57.08
2022-08-04T20:37:55.272Z,57.45
2022-08-04T20:40:18.199Z,57.74
2022-08-04T20:42:50.886Z,57.68
2022-08-04T20:45:22.672Z,58.11
2022-08-04T20:47:54.437Z,58.36
2022-08-04T20:50:29.540Z,58.34
2022-08-04T20:53:18.601Z,58.50
2022-08-04T20:55:55.378Z,58.81
2022-08-04T20:58:28.049Z,58.78
2022-08-04T21:00:59.073Z,58.58
2022-08-04T21:03:49.238Z,59.13
2022-08-04T21:06:20.815Z,58.92
2022-08-04T21:11:47.275Z,59.01
2022-08-04T21:14:21.736Z,59.21
2022-08-04T21:17:00.768Z,59.19
2022-08-04T21:19:32.083Z,59.49
2022-08-04T21:22:10.607Z,59.51
2022-08-04T21:24:42.879Z,59.35
2022-08-04T21:27:19.531Z,59.32
2022-08-04T21:29:53.156Z,59.49
2022-08-04T21:32:27.311Z,59.60
2022-08-04T21:35:00.833Z,59.62
2022-08-04T21:37:57.977Z,59.62
2022-08-04T21:40:38.577Z,59.71
2022-08-04T21:43:09.503Z,59.74
2022-08-04T21:45:40.342Z,59.98
2022-08-04T21:48:11.321Z,59.93
2022-08-04T21:50:42.052Z,59.97
2022-08-04T21:53:12.948Z,60.14
2022-08-04T21:56:05.476Z,60.23
2022-08-04T21:58:34.606Z,60.08
2022-08-04T22:01:12.582Z,60.22
2022-08-04T22:03:52.825Z,60.40
2022-08-04T22:06:28.830Z,60.52
2022-08-04T22:08:59.639Z,60.69
2022-08-04T22:11:48.122Z,60.72
2022-08-04T22:14:27.663Z,60.68
2022-08-04T22:17:05.941Z,61.08
2022-08-04T22:19:40.345Z,60.91
2022-08-04T22:22:29.560Z,60.97
2022-08-04T22:25:12.333Z,60.99
2022-08-04T22:28:03.896Z,61.00
2022-08-04T22:30:36.661Z,61.16
2022-08-04T22:33:09.111Z,61.34
2022-08-04T22:35:49.037Z,61.46
2022-08-04T22:38:31.738Z,61.51
2022-08-04T22:41:12.338Z,61.59
2022-08-04T22:43:43.887Z,61.53
2022-08-04T22:46:21.660Z,61.55
2022-08-04T22:48:52.941Z,61.87
2022-08-04T22:51:23.984Z,63.38
2022-08-04T22:53:58.030Z,60.09
2022-08-04T22:56:38.031Z,57.91
2022-08-04T22:59:11.520Z,58.12
2022-08-04T23:02:00.910Z,58.50
2022-08-04T23:04:33.213Z,58.44
2022-08-04T23:07:05.255Z,59.35
2022-08-04T23:09:50.394Z,59.92
2022-08-04T23:12:25.501Z,60.27
2022-08-04T23:14:58.346Z,60.55
2022-08-04T23:17:32.926Z,61.09
2022-08-04T23:20:23.534Z,61.35
2022-08-04T23:23:14.850Z,61.78
2022-08-04T23:26:07.760Z,61.80
2022-08-04T23:28:40.297Z,64.11
2022-08-04T23:31:11.130Z,60.13
2022-08-04T23:33:49.240Z,57.26
2022-08-04T23:36:29.637Z,57.80
2022-08-04T23:39:04.155Z,58.59
2022-08-04T23:41:51.035Z,59.55
2022-08-04T23:44:28.176Z,61.11
2022-08-04T23:47:02.836Z,62.77
2022-08-04T23:49:44.559Z,61.47
2022-08-04T23:52:28.052Z,58.89
2022-08-04T23:55:01.866Z,57.91
2022-08-04T23:58:06.468Z,59.30
